sensor_id;sensor_type;location;lat;lon;timestamp;temperature;humidity
66708;DHT22;53622;0.000;0.000;2023-02-26T00:01:56;20.80;48.00
66708;DHT22;53622;0.000;0.000;2023-02-26T00:04:28;20.80;48.00
66708;DHT22;53622;0.000;0.000;2023-02-26T00:06:57;20.80;48.00
66708;DHT22;53622;0.000;0.000;2023-02-26T00:09:27;20.80;48.00
66708;DHT22;53622;0.000;0.000;2023-02-26T00:11:56;20.70;47.90
66708;DHT22;53622;0.000;0.000;2023-02-26T00:14:28;20.70;47.90
66708;DHT22;53622;0.000;0.000;2023-02-26T00:17:12;20.70;47.90
66708;DHT22;53622;0.000;0.000;2023-02-26T00:19:50;20.80;48.00
66708;DHT22;53622;0.000;0.000;2023-02-26T00:22:20;20.70;48.00
66708;DHT22;53622;0.000;0.000;2023-02-26T00:24:50;20.70;47.90
66708;DHT22;53622;0.000;0.000;2023-02-26T00:27:19;20.70;47.90
66708;DHT22;53622;0.000;0.000;2023-02-26T00:29:50;20.70;47.90
66708;DHT22;53622;0.000;0.000;2023-02-26T00:32:20;20.70;47.90
66708;DHT22;53622;0.000;0.000;2023-02-26T00:34:51;20.70;47.90
66708;DHT22;53622;0.000;0.000;2023-02-26T00:37:27;20.70;47.90
66708;DHT22;53622;0.000;0.000;2023-02-26T00:40:06;20.70;48.00
66708;DHT22;53622;0.000;0.000;2023-02-26T00:42:37;20.60;47.90
66708;DHT22;53622;0.000;0.000;2023-02-26T00:45:09;20.70;47.90
66708;DHT22;53622;0.000;0.000;2023-02-26T00:47:44;20.60;47.80
66708;DHT22;53622;0.000;0.000;2023-02-26T00:50:17;20.60;47.80
66708;DHT22;53622;0.000;0.000;2023-02-26T00:52:56;20.60;47.90
66708;DHT22;53622;0.000;0.000;2023-02-26T00:55:27;20.60;47.80
66708;DHT22;53622;0.000;0.000;2023-02-26T00:57:56;20.60;47.80
66708;DHT22;53622;0.000;0.000;2023-02-26T01:00:27;20.50;47.80
66708;DHT22;53622;0.000;0.000;2023-02-26T01:02:57;20.50;47.70
66708;DHT22;53622;0.000;0.000;2023-02-26T01:05:27;20.50;47.80
66708;DHT22;53622;0.000;0.000;2023-02-26T01:08:01;20.50;47.70
66708;DHT22;53622;0.000;0.000;2023-02-26T01:10:34;20.50;47.70
66708;DHT22;53622;0.000;0.000;2023-02-26T01:13:04;20.50;47.70
66708;DHT22;53622;0.000;0.000;2023-02-26T01:15:35;20.50;47.70
66708;DHT22;53622;0.000;0.000;2023-02-26T01:18:11;20.50;47.70
66708;DHT22;53622;0.000;0.000;2023-02-26T01:20:43;20.50;47.60
66708;DHT22;53622;0.000;0.000;2023-02-26T01:23:17;20.50;47.60
66708;DHT22;53622;0.000;0.000;2023-02-26T01:25:50;20.50;47.60
66708;DHT22;53622;0.000;0.000;2023-02-26T01:28:21;20.50;47.60
66708;DHT22;53622;0.000;0.000;2023-02-26T01:30:56;20.50;47.50
66708;DHT22;53622;0.000;0.000;2023-02-26T01:33:31;20.50;47.50
66708;DHT22;53622;0.000;0.000;2023-02-26T01:36:07;20.40;47.50
66708;DHT22;53622;0.000;0.000;2023-02-26T01:38:41;20.50;47.40
66708;DHT22;53622;0.000;0.000;2023-02-26T01:41:32;20.40;47.40
66708;DHT22;53622;0.000;0.000;2023-02-26T01:44:12;20.40;47.30
66708;DHT22;53622;0.000;0.000;2023-02-26T01:46:55;20.40;47.40
66708;DHT22;53622;0.000;0.000;2023-02-26T01:49:28;20.40;47.40
66708;DHT22;53622;0.000;0.000;2023-02-26T01:51:58;20.40;47.40
66708;DHT22;53622;0.000;0.000;2023-02-26T01:54:31;20.40;47.40
66708;DHT22;53622;0.000;0.000;2023-02-26T01:57:04;20.40;47.30
66708;DHT22;53622;0.000;0.000;2023-02-26T01:59:36;20.30;47.20
66708;DHT22;53622;0.000;0.000;2023-02-26T02:02:09;20.30;47.20
66708;DHT22;53622;0.000;0.000;2023-02-26T02:04:39;20.30;47.20
66708;DHT22;53622;0.000;0.000;2023-02-26T02:07:10;20.30;47.20
66708;DHT22;53622;0.000;0.000;2023-02-26T02:09:39;20.30;47.20
66708;DHT22;53622;0.000;0.000;2023-02-26T02:12:26;20.30;47.20
66708;DHT22;53622;0.000;0.000;2023-02-26T02:15:07;20.30;47.20
66708;DHT22;53622;0.000;0.000;2023-02-26T02:17:50;20.30;47.20
66708;DHT22;53622;0.000;0.000;2023-02-26T02:20:28;20.30;47.20
66708;DHT22;53622;0.000;0.000;2023-02-26T02:23:10;20.30;47.20
66708;DHT22;53622;0.000;0.000;2023-02-26T02:26:16;20.30;47.20
66708;DHT22;53622;0.000;0.000;2023-02-26T02:29:04;20.30;47.20
66708;DHT22;53622;0.000;0.000;2023-02-26T02:31:42;20.20;47.10
66708;DHT22;53622;0.000;0.000;2023-02-26T02:34:15;20.20;47.10
66708;DHT22;53622;0.000;0.000;2023-02-26T02:36:50;20.20;47.10
66708;DHT22;53622;0.000;0.000;2023-02-26T02:39:25;20.20;47.10
66708;DHT22;53622;0.000;0.000;2023-02-26T02:41:58;20.20;47.10
66708;DHT22;53622;0.000;0.000;2023-02-26T02:44:31;20.20;47.10
66708;DHT22;53622;0.000;0.000;2023-02-26T02:47:05;20.20;47.10
66708;DHT22;53622;0.000;0.000;2023-02-26T02:49:40;20.20;47.10
66708;DHT22;53622;0.000;0.000;2023-02-26T02:52:14;20.20;47.10
66708;DHT22;53622;0.000;0.000;2023-02-26T02:54:50;20.10;47.00
66708;DHT22;53622;0.000;0.000;2023-02-26T02:57:25;20.10;47.00
66708;DHT22;53622;0.000;0.000;2023-02-26T02:59:59;20.10;47.00
66708;DHT22;53622;0.000;0.000;2023-02-26T03:02:38;20.10;47.00
66708;DHT22;53622;0.000;0.000;2023-02-26T03:05:09;20.10;47.00
66708;DHT22;53622;0.000;0.000;2023-02-26T03:07:47;20.10;47.00
66708;DHT22;53622;0.000;0.000;2023-02-26T03:10:17;20.10;47.00
66708;DHT22;53622;0.000;0.000;2023-02-26T03:12:46;20.10;47.00
66708;DHT22;53622;0.000;0.000;2023-02-26T03:15:25;20.10;47.00
66708;DHT22;53622;0.000;0.000;2023-02-26T03:18:02;20.10;47.00
66708;DHT22;53622;0.000;0.000;2023-02-26T03:20:39;20.10;47.00
66708;DHT22;53622;0.000;0.000;2023-02-26T03:23:16;20.10;46.90
66708;DHT22;53622;0.000;0.000;2023-02-26T03:25:51;20.10;46.90
66708;DHT22;53622;0.000;0.000;2023-02-26T03:28:28;20.10;47.00
66708;DHT22;53622;0.000;0.000;2023-02-26T03:31:07;20.10;46.90
66708;DHT22;53622;0.000;0.000;2023-02-26T03:33:45;20.10;46.90
66708;DHT22;53622;0.000;0.000;2023-02-26T03:36:20;20.10;46.90
66708;DHT22;53622;0.000;0.000;2023-02-26T03:39:22;20.10;46.90
66708;DHT22;53622;0.000;0.000;2023-02-26T03:41:56;20.00;46.90
66708;DHT22;53622;0.000;0.000;2023-02-26T03:44:35;20.00;46.80
66708;DHT22;53622;0.000;0.000;2023-02-26T03:47:07;20.00;46.80
66708;DHT22;53622;0.000;0.000;2023-02-26T03:49:44;20.00;46.80
66708;DHT22;53622;0.000;0.000;2023-02-26T03:52:15;20.00;46.80
66708;DHT22;53622;0.000;0.000;2023-02-26T03:55:14;20.00;46.70
66708;DHT22;53622;0.000;0.000;2023-02-26T03:58:18;20.00;46.70
66708;DHT22;53622;0.000;0.000;2023-02-26T04:01:10;20.00;46.80
66708;DHT22;53622;0.000;0.000;2023-02-26T04:03:44;20.00;47.30
66708;DHT22;53622;0.000;0.000;2023-02-26T04:06:16;19.90;46.70
66708;DHT22;53622;0.000;0.000;2023-02-26T04:08:47;20.00;46.70
66708;DHT22;53622;0.000;0.000;2023-02-26T04:11:18;19.90;46.60
66708;DHT22;53622;0.000;0.000;2023-02-26T04:13:48;19.90;46.60
66708;DHT22;53622;0.000;0.000;2023-02-26T04:16:18;19.90;46.60
66708;DHT22;53622;0.000;0.000;2023-02-26T04:18:48;19.90;46.60
66708;DHT22;53622;0.000;0.000;2023-02-26T04:21:20;19.90;46.70
66708;DHT22;53622;0.000;0.000;2023-02-26T04:23:50;19.90;46.60
66708;DHT22;53622;0.000;0.000;2023-02-26T04:26:20;19.90;46.50
66708;DHT22;53622;0.000;0.000;2023-02-26T04:28:50;19.90;46.60
66708;DHT22;53622;0.000;0.000;2023-02-26T04:31:19;19.90;46.60
66708;DHT22;53622;0.000;0.000;2023-02-26T04:33:49;19.90;46.60
66708;DHT22;53622;0.000;0.000;2023-02-26T04:36:20;19.90;46.60
66708;DHT22;53622;0.000;0.000;2023-02-26T04:38:49;19.90;46.50
66708;DHT22;53622;0.000;0.000;2023-02-26T04:41:19;19.90;46.60
66708;DHT22;53622;0.000;0.000;2023-02-26T04:43:49;19.90;46.60
66708;DHT22;53622;0.000;0.000;2023-02-26T04:46:23;19.90;46.60
66708;DHT22;53622;0.000;0.000;2023-02-26T04:48:53;19.90;46.60
66708;DHT22;53622;0.000;0.000;2023-02-26T04:51:25;19.90;46.60
66708;DHT22;53622;0.000;0.000;2023-02-26T04:53:54;19.90;46.50
66708;DHT22;53622;0.000;0.000;2023-02-26T04:56:24;19.80;46.50
66708;DHT22;53622;0.000;0.000;2023-02-26T04:58:53;19.80;47.10
66708;DHT22;53622;0.000;0.000;2023-02-26T05:01:27;19.80;46.50
66708;DHT22;53622;0.000;0.000;2023-02-26T05:03:57;19.80;46.50
66708;DHT22;53622;0.000;0.000;2023-02-26T05:06:30;19.80;46.50
66708;DHT22;53622;0.000;0.000;2023-02-26T05:08:59;19.80;46.60
66708;DHT22;53622;0.000;0.000;2023-02-26T05:11:30;19.80;46.70
66708;DHT22;53622;0.000;0.000;2023-02-26T05:13:59;19.90;46.80
66708;DHT22;53622;0.000;0.000;2023-02-26T05:16:28;19.90;47.00
66708;DHT22;53622;0.000;0.000;2023-02-26T05:18:58;19.90;47.20
66708;DHT22;53622;0.000;0.000;2023-02-26T05:21:28;20.00;47.20
66708;DHT22;53622;0.000;0.000;2023-02-26T05:23:58;20.00;47.20
66708;DHT22;53622;0.000;0.000;2023-02-26T05:26:29;20.10;47.20
66708;DHT22;53622;0.000;0.000;2023-02-26T05:28:59;20.10;47.10
66708;DHT22;53622;0.000;0.000;2023-02-26T05:31:29;20.10;47.20
66708;DHT22;53622;0.000;0.000;2023-02-26T05:33:58;20.20;47.10
66708;DHT22;53622;0.000;0.000;2023-02-26T05:36:28;20.20;47.20
66708;DHT22;53622;0.000;0.000;2023-02-26T05:38:58;20.20;47.20
66708;DHT22;53622;0.000;0.000;2023-02-26T05:41:28;20.30;47.20
66708;DHT22;53622;0.000;0.000;2023-02-26T05:43:57;20.30;47.10
66708;DHT22;53622;0.000;0.000;2023-02-26T05:46:27;20.30;47.10
66708;DHT22;53622;0.000;0.000;2023-02-26T05:48:56;20.40;47.10
66708;DHT22;53622;0.000;0.000;2023-02-26T05:51:25;20.40;47.00
66708;DHT22;53622;0.000;0.000;2023-02-26T05:53:55;20.50;47.10
66708;DHT22;53622;0.000;0.000;2023-02-26T05:56:26;20.50;47.10
66708;DHT22;53622;0.000;0.000;2023-02-26T05:58:55;20.50;47.00
66708;DHT22;53622;0.000;0.000;2023-02-26T06:01:24;20.50;47.00
66708;DHT22;53622;0.000;0.000;2023-02-26T06:03:54;20.60;47.00
66708;DHT22;53622;0.000;0.000;2023-02-26T06:06:23;20.60;47.00
66708;DHT22;53622;0.000;0.000;2023-02-26T06:08:54;20.60;47.00
66708;DHT22;53622;0.000;0.000;2023-02-26T06:11:25;20.70;47.00
66708;DHT22;53622;0.000;0.000;2023-02-26T06:13:54;20.70;46.90
66708;DHT22;53622;0.000;0.000;2023-02-26T06:16:24;20.70;47.00
66708;DHT22;53622;0.000;0.000;2023-02-26T06:18:55;20.70;46.70
66708;DHT22;53622;0.000;0.000;2023-02-26T06:21:24;20.80;47.00
66708;DHT22;53622;0.000;0.000;2023-02-26T06:23:54;20.80;46.90
66708;DHT22;53622;0.000;0.000;2023-02-26T06:26:24;20.80;46.90
66708;DHT22;53622;0.000;0.000;2023-02-26T06:28:54;20.80;47.30
66708;DHT22;53622;0.000;0.000;2023-02-26T06:31:24;20.80;48.10
66708;DHT22;53622;0.000;0.000;2023-02-26T06:33:53;20.90;48.20
66708;DHT22;53622;0.000;0.000;2023-02-26T06:36:22;21.00;47.80
66708;DHT22;53622;0.000;0.000;2023-02-26T06:38:52;21.20;47.60
66708;DHT22;53622;0.000;0.000;2023-02-26T06:41:21;21.40;47.60
66708;DHT22;53622;0.000;0.000;2023-02-26T06:43:52;21.60;47.60
66708;DHT22;53622;0.000;0.000;2023-02-26T06:46:22;21.80;47.00
66708;DHT22;53622;0.000;0.000;2023-02-26T06:48:51;22.00;46.80
66708;DHT22;53622;0.000;0.000;2023-02-26T06:51:21;22.10;46.50
66708;DHT22;53622;0.000;0.000;2023-02-26T06:53:50;22.20;46.40
66708;DHT22;53622;0.000;0.000;2023-02-26T06:56:20;22.30;46.40
66708;DHT22;53622;0.000;0.000;2023-02-26T06:58:52;22.40;46.40
66708;DHT22;53622;0.000;0.000;2023-02-26T07:01:21;22.50;46.40
66708;DHT22;53622;0.000;0.000;2023-02-26T07:03:52;22.50;46.30
66708;DHT22;53622;0.000;0.000;2023-02-26T07:06:22;22.60;46.10
66708;DHT22;53622;0.000;0.000;2023-02-26T07:08:54;22.70;46.30
66708;DHT22;53622;0.000;0.000;2023-02-26T07:11:24;22.60;46.40
66708;DHT22;53622;0.000;0.000;2023-02-26T07:13:55;22.60;46.70
66708;DHT22;53622;0.000;0.000;2023-02-26T07:16:24;22.50;46.60
66708;DHT22;53622;0.000;0.000;2023-02-26T07:18:54;22.50;46.40
66708;DHT22;53622;0.000;0.000;2023-02-26T07:21:23;22.50;46.40
66708;DHT22;53622;0.000;0.000;2023-02-26T07:23:52;22.40;47.10
66708;DHT22;53622;0.000;0.000;2023-02-26T07:26:22;22.40;47.10
66708;DHT22;53622;0.000;0.000;2023-02-26T07:28:51;22.40;47.30
66708;DHT22;53622;0.000;0.000;2023-02-26T07:31:22;22.40;47.20
66708;DHT22;53622;0.000;0.000;2023-02-26T07:33:52;22.40;47.40
66708;DHT22;53622;0.000;0.000;2023-02-26T07:36:21;22.40;47.30
66708;DHT22;53622;0.000;0.000;2023-02-26T07:38:51;22.40;47.20
66708;DHT22;53622;0.000;0.000;2023-02-26T07:41:20;22.40;47.30
66708;DHT22;53622;0.000;0.000;2023-02-26T07:43:49;22.40;47.50
66708;DHT22;53622;0.000;0.000;2023-02-26T07:46:18;22.40;47.30
66708;DHT22;53622;0.000;0.000;2023-02-26T07:48:49;22.40;47.20
66708;DHT22;53622;0.000;0.000;2023-02-26T07:51:19;22.40;47.30
66708;DHT22;53622;0.000;0.000;2023-02-26T07:53:48;22.40;47.50
66708;DHT22;53622;0.000;0.000;2023-02-26T07:56:17;22.30;48.00
66708;DHT22;53622;0.000;0.000;2023-02-26T07:58:47;22.30;47.50
66708;DHT22;53622;0.000;0.000;2023-02-26T08:01:16;22.30;47.10
66708;DHT22;53622;0.000;0.000;2023-02-26T08:03:45;22.30;47.10
66708;DHT22;53622;0.000;0.000;2023-02-26T08:06:16;22.30;47.30
66708;DHT22;53622;0.000;0.000;2023-02-26T08:08:45;22.30;47.00
66708;DHT22;53622;0.000;0.000;2023-02-26T08:11:15;22.30;47.70
66708;DHT22;53622;0.000;0.000;2023-02-26T08:13:44;22.30;47.50
66708;DHT22;53622;0.000;0.000;2023-02-26T08:16:13;22.30;47.00
66708;DHT22;53622;0.000;0.000;2023-02-26T08:18:43;22.30;46.90
66708;DHT22;53622;0.000;0.000;2023-02-26T08:21:12;22.30;47.20
66708;DHT22;53622;0.000;0.000;2023-02-26T08:23:42;22.30;47.10
66708;DHT22;53622;0.000;0.000;2023-02-26T08:26:12;22.20;47.60
66708;DHT22;53622;0.000;0.000;2023-02-26T08:28:41;22.20;47.30
66708;DHT22;53622;0.000;0.000;2023-02-26T08:31:11;22.20;47.00
66708;DHT22;53622;0.000;0.000;2023-02-26T08:33:41;22.20;47.20
66708;DHT22;53622;0.000;0.000;2023-02-26T08:36:11;22.30;47.10
66708;DHT22;53622;0.000;0.000;2023-02-26T08:38:42;22.30;46.90
66708;DHT22;53622;0.000;0.000;2023-02-26T08:41:12;22.30;47.30
66708;DHT22;53622;0.000;0.000;2023-02-26T08:43:41;22.20;43.90
66708;DHT22;53622;0.000;0.000;2023-02-26T08:46:10;22.10;43.90
66708;DHT22;53622;0.000;0.000;2023-02-26T08:48:40;22.10;46.20
66708;DHT22;53622;0.000;0.000;2023-02-26T08:51:09;22.10;46.90
66708;DHT22;53622;0.000;0.000;2023-02-26T08:53:38;22.10;47.90
66708;DHT22;53622;0.000;0.000;2023-02-26T08:56:10;22.00;48.20
66708;DHT22;53622;0.000;0.000;2023-02-26T08:58:39;22.00;48.20
66708;DHT22;53622;0.000;0.000;2023-02-26T09:01:08;22.00;48.20
66708;DHT22;53622;0.000;0.000;2023-02-26T09:03:38;22.10;48.30
66708;DHT22;53622;0.000;0.000;2023-02-26T09:06:08;22.00;48.20
66708;DHT22;53622;0.000;0.000;2023-02-26T09:08:37;22.00;48.20
66708;DHT22;53622;0.000;0.000;2023-02-26T09:11:06;22.00;48.20
66708;DHT22;53622;0.000;0.000;2023-02-26T09:13:38;22.00;47.90
66708;DHT22;53622;0.000;0.000;2023-02-26T09:16:07;22.00;47.90
66708;DHT22;53622;0.000;0.000;2023-02-26T09:18:37;22.10;47.60
66708;DHT22;53622;0.000;0.000;2023-02-26T09:21:06;22.00;47.70
66708;DHT22;53622;0.000;0.000;2023-02-26T09:23:35;22.00;47.40
66708;DHT22;53622;0.000;0.000;2023-02-26T09:26:08;22.10;47.70
66708;DHT22;53622;0.000;0.000;2023-02-26T09:28:39;22.10;47.50
66708;DHT22;53622;0.000;0.000;2023-02-26T09:31:09;22.10;47.40
66708;DHT22;53622;0.000;0.000;2023-02-26T09:33:38;22.10;47.30
66708;DHT22;53622;0.000;0.000;2023-02-26T09:36:08;22.10;47.30
66708;DHT22;53622;0.000;0.000;2023-02-26T09:38:37;22.10;47.40
66708;DHT22;53622;0.000;0.000;2023-02-26T09:41:13;22.10;47.50
66708;DHT22;53622;0.000;0.000;2023-02-26T09:44:14;22.10;47.50
66708;DHT22;53622;0.000;0.000;2023-02-26T09:46:53;22.10;45.50
66708;DHT22;53622;0.000;0.000;2023-02-26T09:49:46;22.20;45.60
66708;DHT22;53622;0.000;0.000;2023-02-26T09:52:22;22.30;46.10
66708;DHT22;53622;0.000;0.000;2023-02-26T09:54:55;22.30;46.20
66708;DHT22;53622;0.000;0.000;2023-02-26T09:57:30;22.30;46.20
66708;DHT22;53622;0.000;0.000;2023-02-26T10:00:05;22.30;46.50
66708;DHT22;53622;0.000;0.000;2023-02-26T10:02:44;22.40;46.70
66708;DHT22;53622;0.000;0.000;2023-02-26T10:05:22;22.40;46.10
66708;DHT22;53622;0.000;0.000;2023-02-26T10:07:57;22.40;46.50
66708;DHT22;53622;0.000;0.000;2023-02-26T10:10:34;22.50;46.40
66708;DHT22;53622;0.000;0.000;2023-02-26T10:13:16;22.50;46.50
66708;DHT22;53622;0.000;0.000;2023-02-26T10:15:49;22.50;46.10
66708;DHT22;53622;0.000;0.000;2023-02-26T10:18:24;22.50;45.90
66708;DHT22;53622;0.000;0.000;2023-02-26T10:21:00;22.50;42.20
66708;DHT22;53622;0.000;0.000;2023-02-26T10:23:37;22.40;43.90
66708;DHT22;53622;0.000;0.000;2023-02-26T10:26:13;22.40;45.00
66708;DHT22;53622;0.000;0.000;2023-02-26T10:28:53;22.40;44.40
66708;DHT22;53622;0.000;0.000;2023-02-26T10:31:32;22.40;44.50
66708;DHT22;53622;0.000;0.000;2023-02-26T10:34:14;22.50;44.60
66708;DHT22;53622;0.000;0.000;2023-02-26T10:36:50;22.50;44.90
66708;DHT22;53622;0.000;0.000;2023-02-26T10:39:28;22.50;45.20
66708;DHT22;53622;0.000;0.000;2023-02-26T10:42:01;22.50;45.30
66708;DHT22;53622;0.000;0.000;2023-02-26T10:44:37;22.50;45.50
66708;DHT22;53622;0.000;0.000;2023-02-26T10:47:17;22.50;45.30
66708;DHT22;53622;0.000;0.000;2023-02-26T10:49:53;22.60;45.80
66708;DHT22;53622;0.000;0.000;2023-02-26T10:52:25;22.60;46.20
66708;DHT22;53622;0.000;0.000;2023-02-26T10:55:18;22.60;46.00
66708;DHT22;53622;0.000;0.000;2023-02-26T10:57:54;22.70;46.00
66708;DHT22;53622;0.000;0.000;2023-02-26T11:00:24;22.70;45.60
66708;DHT22;53622;0.000;0.000;2023-02-26T11:02:56;22.70;45.90
66708;DHT22;53622;0.000;0.000;2023-02-26T11:05:27;22.80;46.20
66708;DHT22;53622;0.000;0.000;2023-02-26T11:08:02;22.80;46.30
66708;DHT22;53622;0.000;0.000;2023-02-26T11:10:40;22.80;46.00
66708;DHT22;53622;0.000;0.000;2023-02-26T11:13:10;22.80;45.60
66708;DHT22;53622;0.000;0.000;2023-02-26T11:15:39;22.80;44.70
66708;DHT22;53622;0.000;0.000;2023-02-26T11:18:14;22.80;43.90
66708;DHT22;53622;0.000;0.000;2023-02-26T11:20:46;22.90;44.20
66708;DHT22;53622;0.000;0.000;2023-02-26T11:23:18;22.90;43.90
66708;DHT22;53622;0.000;0.000;2023-02-26T11:25:53;22.90;44.00
66708;DHT22;53622;0.000;0.000;2023-02-26T11:28:30;22.90;44.40
66708;DHT22;53622;0.000;0.000;2023-02-26T11:31:00;22.90;43.80
66708;DHT22;53622;0.000;0.000;2023-02-26T11:33:37;22.90;44.00
66708;DHT22;53622;0.000;0.000;2023-02-26T11:36:09;22.90;44.00
66708;DHT22;53622;0.000;0.000;2023-02-26T11:38:40;22.90;43.90
66708;DHT22;53622;0.000;0.000;2023-02-26T11:41:13;22.90;44.00
66708;DHT22;53622;0.000;0.000;2023-02-26T11:43:44;22.80;44.30
66708;DHT22;53622;0.000;0.000;2023-02-26T11:46:16;22.80;44.50
66708;DHT22;53622;0.000;0.000;2023-02-26T11:48:48;22.80;44.50
66708;DHT22;53622;0.000;0.000;2023-02-26T11:51:20;22.80;44.60
66708;DHT22;53622;0.000;0.000;2023-02-26T11:53:53;22.80;44.60
66708;DHT22;53622;0.000;0.000;2023-02-26T11:56:25;22.80;44.50
66708;DHT22;53622;0.000;0.000;2023-02-26T11:59:00;22.80;44.20
66708;DHT22;53622;0.000;0.000;2023-02-26T12:01:30;22.80;44.20
66708;DHT22;53622;0.000;0.000;2023-02-26T12:04:01;22.90;44.20
66708;DHT22;53622;0.000;0.000;2023-02-26T12:06:31;22.90;43.90
66708;DHT22;53622;0.000;0.000;2023-02-26T12:09:01;22.90;43.80
66708;DHT22;53622;0.000;0.000;2023-02-26T12:11:42;22.90;43.90
66708;DHT22;53622;0.000;0.000;2023-02-26T12:14:28;23.00;44.00
66708;DHT22;53622;0.000;0.000;2023-02-26T12:17:13;23.00;44.00
66708;DHT22;53622;0.000;0.000;2023-02-26T12:19:54;23.00;44.00
66708;DHT22;53622;0.000;0.000;2023-02-26T12:22:46;23.00;44.10
66708;DHT22;53622;0.000;0.000;2023-02-26T12:25:31;23.10;44.20
66708;DHT22;53622;0.000;0.000;2023-02-26T12:28:38;23.10;43.80
66708;DHT22;53622;0.000;0.000;2023-02-26T12:31:36;23.10;43.60
66708;DHT22;53622;0.000;0.000;2023-02-26T12:34:20;23.10;43.80
66708;DHT22;53622;0.000;0.000;2023-02-26T12:37:16;23.10;43.70
66708;DHT22;53622;0.000;0.000;2023-02-26T12:40:00;23.10;43.90
66708;DHT22;53622;0.000;0.000;2023-02-26T12:42:42;23.10;44.20
66708;DHT22;53622;0.000;0.000;2023-02-26T12:45:31;23.20;44.20
66708;DHT22;53622;0.000;0.000;2023-02-26T12:48:32;23.20;44.10
66708;DHT22;53622;0.000;0.000;2023-02-26T12:51:08;23.20;44.00
66708;DHT22;53622;0.000;0.000;2023-02-26T12:56:54;23.20;43.40
66708;DHT22;53622;0.000;0.000;2023-02-26T12:59:49;23.20;43.10
66708;DHT22;53622;0.000;0.000;2023-02-26T13:05:41;23.30;43.10
66708;DHT22;53622;0.000;0.000;2023-02-26T13:08:19;23.30;42.60
66708;DHT22;53622;0.000;0.000;2023-02-26T13:11:14;23.30;42.60
66708;DHT22;53622;0.000;0.000;2023-02-26T13:13:57;23.40;42.90
66708;DHT22;53622;0.000;0.000;2023-02-26T13:16:41;23.40;42.80
66708;DHT22;53622;0.000;0.000;2023-02-26T13:19:21;23.40;42.50
66708;DHT22;53622;0.000;0.000;2023-02-26T13:21:57;23.40;42.10
66708;DHT22;53622;0.000;0.000;2023-02-26T13:24:31;23.40;41.90
66708;DHT22;53622;0.000;0.000;2023-02-26T13:27:14;23.50;42.20
66708;DHT22;53622;0.000;0.000;2023-02-26T13:29:46;23.50;41.90
66708;DHT22;53622;0.000;0.000;2023-02-26T13:32:20;23.50;42.20
66708;DHT22;53622;0.000;0.000;2023-02-26T13:34:54;23.50;42.10
66708;DHT22;53622;0.000;0.000;2023-02-26T13:37:29;23.50;42.00
66708;DHT22;53622;0.000;0.000;2023-02-26T13:40:24;23.50;42.00
66708;DHT22;53622;0.000;0.000;2023-02-26T13:43:04;23.60;41.90
66708;DHT22;53622;0.000;0.000;2023-02-26T13:45:45;23.60;41.90
66708;DHT22;53622;0.000;0.000;2023-02-26T13:48:25;23.60;41.70
66708;DHT22;53622;0.000;0.000;2023-02-26T13:51:01;23.60;41.80
66708;DHT22;53622;0.000;0.000;2023-02-26T13:53:48;23.60;41.70
66708;DHT22;53622;0.000;0.000;2023-02-26T13:56:48;23.60;42.10
66708;DHT22;53622;0.000;0.000;2023-02-26T13:59:31;23.60;42.20
66708;DHT22;53622;0.000;0.000;2023-02-26T14:05:35;23.60;42.00
66708;DHT22;53622;0.000;0.000;2023-02-26T14:11:41;23.60;41.30
66708;DHT22;53622;0.000;0.000;2023-02-26T14:14:17;23.60;41.40
66708;DHT22;53622;0.000;0.000;2023-02-26T14:16:53;23.60;42.40
66708;DHT22;53622;0.000;0.000;2023-02-26T14:19:27;23.50;42.10
66708;DHT22;53622;0.000;0.000;2023-02-26T14:22:01;23.50;42.10
66708;DHT22;53622;0.000;0.000;2023-02-26T14:24:34;23.50;42.10
66708;DHT22;53622;0.000;0.000;2023-02-26T14:27:23;23.40;40.60
66708;DHT22;53622;0.000;0.000;2023-02-26T14:32:48;23.30;40.40
66708;DHT22;53622;0.000;0.000;2023-02-26T14:35:22;23.20;40.00
66708;DHT22;53622;0.000;0.000;2023-02-26T14:37:57;23.20;40.60
66708;DHT22;53622;0.000;0.000;2023-02-26T14:40:31;23.20;40.40
66708;DHT22;53622;0.000;0.000;2023-02-26T14:43:04;23.10;40.20
66708;DHT22;53622;0.000;0.000;2023-02-26T14:45:36;23.10;40.40
66708;DHT22;53622;0.000;0.000;2023-02-26T14:48:13;23.10;39.80
66708;DHT22;53622;0.000;0.000;2023-02-26T14:50:51;23.00;40.30
66708;DHT22;53622;0.000;0.000;2023-02-26T14:53:54;23.00;40.30
66708;DHT22;53622;0.000;0.000;2023-02-26T14:56:34;23.00;40.30
66708;DHT22;53622;0.000;0.000;2023-02-26T14:59:27;23.00;40.60
66708;DHT22;53622;0.000;0.000;2023-02-26T15:02:13;23.00;40.80
66708;DHT22;53622;0.000;0.000;2023-02-26T15:08:06;23.00;41.50
66708;DHT22;53622;0.000;0.000;2023-02-26T15:10:50;23.00;41.30
66708;DHT22;53622;0.000;0.000;2023-02-26T15:13:35;23.00;41.70
66708;DHT22;53622;0.000;0.000;2023-02-26T15:16:13;22.90;42.20
66708;DHT22;53622;0.000;0.000;2023-02-26T15:19:00;22.90;41.50
66708;DHT22;53622;0.000;0.000;2023-02-26T15:21:43;23.00;41.80
66708;DHT22;53622;0.000;0.000;2023-02-26T15:24:15;23.00;41.70
66708;DHT22;53622;0.000;0.000;2023-02-26T15:26:49;23.00;41.80
66708;DHT22;53622;0.000;0.000;2023-02-26T15:29:23;23.00;41.70
66708;DHT22;53622;0.000;0.000;2023-02-26T15:31:57;23.10;41.60
66708;DHT22;53622;0.000;0.000;2023-02-26T15:34:30;23.00;40.20
66708;DHT22;53622;0.000;0.000;2023-02-26T15:37:02;23.00;39.90
66708;DHT22;53622;0.000;0.000;2023-02-26T15:39:31;23.00;40.20
66708;DHT22;53622;0.000;0.000;2023-02-26T15:42:02;22.90;35.50
66708;DHT22;53622;0.000;0.000;2023-02-26T15:44:32;22.90;37.60
66708;DHT22;53622;0.000;0.000;2023-02-26T15:47:07;22.90;38.30
66708;DHT22;53622;0.000;0.000;2023-02-26T15:49:39;22.90;38.60
66708;DHT22;53622;0.000;0.000;2023-02-26T15:52:15;22.90;38.80
66708;DHT22;53622;0.000;0.000;2023-02-26T15:54:47;22.90;39.10
66708;DHT22;53622;0.000;0.000;2023-02-26T15:57:19;22.90;39.80
66708;DHT22;53622;0.000;0.000;2023-02-26T15:59:52;22.90;39.30
66708;DHT22;53622;0.000;0.000;2023-02-26T16:02:26;22.90;39.70
66708;DHT22;53622;0.000;0.000;2023-02-26T16:04:57;22.90;40.10
66708;DHT22;53622;0.000;0.000;2023-02-26T16:07:28;23.00;39.70
66708;DHT22;53622;0.000;0.000;2023-02-26T16:10:04;23.00;39.40
66708;DHT22;53622;0.000;0.000;2023-02-26T16:12:36;23.10;39.50
66708;DHT22;53622;0.000;0.000;2023-02-26T16:15:14;23.10;39.30
66708;DHT22;53622;0.000;0.000;2023-02-26T16:17:46;23.20;39.30
66708;DHT22;53622;0.000;0.000;2023-02-26T16:20:19;23.20;39.20
66708;DHT22;53622;0.000;0.000;2023-02-26T16:22:54;23.20;39.00
66708;DHT22;53622;0.000;0.000;2023-02-26T16:25:28;23.20;38.90
66708;DHT22;53622;0.000;0.000;2023-02-26T16:28:00;23.20;38.80
66708;DHT22;53622;0.000;0.000;2023-02-26T16:30:32;23.20;39.00
66708;DHT22;53622;0.000;0.000;2023-02-26T16:33:04;23.20;38.70
66708;DHT22;53622;0.000;0.000;2023-02-26T16:35:38;23.10;38.50
66708;DHT22;53622;0.000;0.000;2023-02-26T16:38:16;23.10;38.80
66708;DHT22;53622;0.000;0.000;2023-02-26T16:40:55;23.10;38.70
66708;DHT22;53622;0.000;0.000;2023-02-26T16:43:35;23.10;39.10
66708;DHT22;53622;0.000;0.000;2023-02-26T16:46:12;23.10;39.60
66708;DHT22;53622;0.000;0.000;2023-02-26T16:48:47;23.10;39.70
66708;DHT22;53622;0.000;0.000;2023-02-26T16:51:20;23.10;40.10